LGHI/JKH METAR and TAF weather

Enter ICAO airport designator
Station Type Date Time Source
LGHI METAR 2022/06/28 07:50 UTC NOAA

LGHI 280750Z 36015KT 9999 FEW020 28/20 Q1011


Station Type Date Time Source
LGHI Decoded METAR 2022/06/28 07:50 UTC NOAA

Chios Airport , Greece (LGHI) 38-20N 026-08E 4M
Jun 28, 2022 - 03:50 AM EDT / 2022.06.28 0750 UTC
Wind: from the N (360 degrees) at 17 MPH (15 KT):0
Visibility: greater than 7 mile(s):0
Sky conditions: mostly clear
Temperature: 82 F (28 C)
Dew Point: 68 F (20 C)
Relative Humidity: 61%
Pressure (altimeter): 29.85 in. Hg (1011 hPa)
ob: LGHI 280750Z 36015KT 9999 FEW020 28/20 Q1011
cycle: 8

Station Type Date Time Source
LGHI TAF 2012/09/21 03:06 UTC NOAA

TAF TAF LGHI 210200Z 2103/2115 VRB05KT 9999 SCT020 PROB30
TEMPO 2103/2106 7000 RA SCT018 BKN030
BECMG 2103/2105 30018KT

Example: see airport list